createdAt,value
2023-02-22T00:00:50.115Z,6.31
2023-02-22T00:03:24.980Z,6.23
2023-02-22T00:05:55.426Z,6.14
2023-02-22T00:08:26.050Z,6.12
2023-02-22T00:10:54.021Z,6.16
2023-02-22T00:13:23.085Z,6.15
2023-02-22T00:15:52.415Z,6.16
2023-02-22T00:18:20.946Z,6.15
2023-02-22T00:20:49.199Z,6.13
2023-02-22T00:23:20.097Z,6.12
2023-02-22T00:25:49.315Z,6.12
2023-02-22T00:28:19.013Z,6.13
2023-02-22T00:30:48.344Z,6.12
2023-02-22T00:33:17.982Z,6.13
2023-02-22T00:35:47.282Z,6.14
2023-02-22T00:38:18.253Z,6.12
2023-02-22T00:40:46.672Z,6.12
2023-02-22T00:43:15.480Z,6.08
2023-02-22T00:45:43.607Z,6.03
2023-02-22T00:48:12.361Z,6.03
2023-02-22T00:50:41.809Z,5.98
2023-02-22T00:53:10.477Z,5.94
2023-02-22T00:55:39.268Z,5.94
2023-02-22T00:58:08.196Z,5.89
2023-02-22T01:00:39.322Z,5.89
2023-02-22T01:03:08.237Z,5.87
2023-02-22T01:05:37.548Z,5.87
2023-02-22T01:08:09.026Z,5.84
2023-02-22T01:10:38.283Z,5.85
2023-02-22T01:13:09.325Z,5.81
2023-02-22T01:15:39.562Z,5.80
2023-02-22T01:18:08.059Z,5.75
2023-02-22T01:20:36.204Z,5.72
2023-02-22T01:23:08.145Z,5.69
2023-02-22T01:25:36.982Z,5.71
2023-02-22T01:28:07.494Z,5.70
2023-02-22T01:30:37.456Z,5.69
2023-02-22T01:33:08.442Z,5.69
2023-02-22T01:35:38.528Z,5.62
2023-02-22T01:38:08.603Z,5.61
2023-02-22T01:40:39.057Z,5.65
2023-02-22T01:43:18.488Z,5.67
2023-02-22T01:45:54.878Z,5.60
2023-02-22T01:48:29.351Z,5.58
2023-02-22T01:51:00.611Z,5.52
2023-02-22T01:53:34.427Z,5.47
2023-02-22T01:56:04.214Z,5.52
2023-02-22T01:58:35.103Z,5.59
2023-02-22T02:01:03.210Z,5.65
2023-02-22T02:03:34.769Z,5.71
2023-02-22T02:06:05.570Z,5.76
2023-02-22T02:08:42.544Z,5.81
2023-02-22T02:11:11.082Z,5.85
2023-02-22T02:13:39.678Z,5.89
2023-02-22T02:16:08.105Z,5.94
2023-02-22T02:18:36.413Z,6.00
2023-02-22T02:21:37.876Z,6.07
2023-02-22T02:24:53.362Z,6.17
2023-02-22T02:27:24.144Z,6.25
2023-02-22T02:30:29.272Z,6.33
2023-02-22T02:33:02.124Z,6.38
2023-02-22T02:35:39.355Z,6.43
2023-02-22T02:38:18.182Z,6.45
2023-02-22T02:40:50.562Z,6.52
2023-02-22T02:43:26.596Z,6.56
2023-02-22T02:46:00.723Z,6.54
2023-02-22T02:48:34.784Z,6.54
2023-02-22T02:51:06.952Z,6.54
2023-02-22T02:53:38.143Z,6.54
2023-02-22T02:56:07.681Z,6.59
2023-02-22T02:58:35.665Z,6.61
2023-02-22T03:01:05.571Z,6.64
2023-02-22T03:03:52.576Z,6.66
2023-02-22T03:06:52.057Z,6.75
2023-02-22T03:09:36.215Z,6.76
2023-02-22T03:12:13.925Z,6.76
2023-02-22T03:14:50.734Z,6.81
2023-02-22T03:17:25.065Z,6.82
2023-02-22T03:20:00.116Z,6.81
2023-02-22T03:22:32.724Z,6.76
2023-02-22T03:25:07.165Z,6.74
2023-02-22T03:27:43.514Z,6.71
2023-02-22T03:30:17.034Z,6.67
2023-02-22T03:32:49.855Z,6.65
2023-02-22T03:35:23.400Z,6.65
2023-02-22T03:37:56.114Z,6.64
2023-02-22T03:40:28.343Z,6.59
2023-02-22T03:43:03.098Z,6.57
2023-02-22T03:45:33.299Z,6.56
2023-02-22T03:48:06.405Z,6.56
2023-02-22T03:50:38.399Z,6.54
2023-02-22T03:53:07.514Z,6.64
2023-02-22T03:55:35.916Z,6.64
2023-02-22T03:58:08.016Z,6.63
2023-02-22T04:00:36.690Z,6.64
2023-02-22T04:03:05.377Z,6.62
2023-02-22T04:05:33.346Z,6.57
2023-02-22T04:08:02.711Z,6.52
2023-02-22T04:10:30.720Z,6.49
2023-02-22T04:12:58.946Z,6.44
2023-02-22T04:15:27.080Z,6.42
2023-02-22T04:17:55.136Z,6.38
2023-02-22T04:20:25.623Z,6.35
2023-02-22T04:22:54.589Z,6.33
2023-02-22T04:25:24.808Z,6.29
2023-02-22T04:27:52.920Z,6.30
2023-02-22T04:30:21.436Z,6.31
2023-02-22T04:32:49.454Z,6.32
2023-02-22T04:35:17.609Z,6.29
2023-02-22T04:37:45.644Z,6.27
2023-02-22T04:40:14.060Z,6.21
2023-02-22T04:42:43.858Z,6.19
2023-02-22T04:45:12.496Z,6.15
2023-02-22T04:47:40.646Z,6.11
2023-02-22T04:50:11.072Z,6.08
2023-02-22T04:52:39.084Z,6.05
2023-02-22T04:55:07.654Z,6.04
2023-02-22T04:57:35.578Z,6.02
2023-02-22T05:00:05.901Z,6.02
2023-02-22T05:02:33.932Z,6.00
2023-02-22T05:05:02.003Z,6.00
2023-02-22T05:07:30.025Z,5.99
2023-02-22T05:09:57.997Z,5.97
2023-02-22T05:12:28.353Z,5.96
2023-02-22T05:14:56.461Z,5.95
2023-02-22T05:17:25.744Z,5.93
2023-02-22T05:19:53.710Z,5.90
2023-02-22T05:22:21.658Z,5.91
2023-02-22T05:24:49.629Z,5.91
2023-02-22T05:27:17.546Z,5.91
2023-02-22T05:29:45.718Z,5.92
2023-02-22T05:32:13.818Z,5.91
2023-02-22T05:34:43.145Z,5.91
2023-02-22T05:37:11.100Z,5.89
2023-02-22T05:39:39.330Z,5.87
2023-02-22T05:42:07.337Z,5.87
2023-02-22T05:44:35.295Z,5.85
2023-02-22T05:47:03.255Z,5.82
2023-02-22T05:49:31.217Z,5.79
2023-02-22T05:52:00.643Z,5.78
2023-02-22T05:54:28.661Z,5.77
2023-02-22T05:56:56.633Z,5.75
2023-02-22T05:59:24.581Z,5.75
2023-02-22T06:01:52.560Z,5.76
2023-02-22T06:04:20.489Z,5.74
2023-02-22T06:06:48.466Z,5.74
2023-02-22T06:09:17.837Z,5.74
2023-02-22T06:11:45.835Z,5.72
2023-02-22T06:14:13.745Z,5.75
2023-02-22T06:16:41.792Z,5.73
2023-02-22T06:19:09.762Z,5.69
2023-02-22T06:21:37.709Z,5.67
2023-02-22T06:24:06.095Z,5.66
2023-02-22T06:26:36.144Z,5.66
2023-02-22T06:29:06.052Z,5.53
2023-02-22T06:31:34.207Z,5.45
2023-02-22T06:34:02.709Z,5.48
2023-02-22T06:36:31.634Z,5.50
2023-02-22T06:38:59.733Z,5.50
2023-02-22T06:41:27.753Z,5.54
2023-02-22T06:43:57.190Z,5.56
2023-02-22T06:46:25.214Z,5.57
2023-02-22T06:48:53.267Z,5.57
2023-02-22T06:51:22.071Z,5.46
2023-02-22T06:53:50.089Z,5.36
2023-02-22T06:56:18.177Z,5.38
2023-02-22T06:58:46.781Z,5.40
2023-02-22T07:01:16.872Z,5.42
2023-02-22T07:03:45.242Z,5.43
2023-02-22T07:06:13.295Z,5.48
2023-02-22T07:08:41.362Z,5.49
2023-02-22T07:11:10.294Z,5.51
2023-02-22T07:13:38.221Z,5.53
2023-02-22T07:16:06.865Z,5.55
2023-02-22T07:18:36.548Z,5.54
2023-02-22T07:21:04.690Z,5.55
2023-02-22T07:23:32.700Z,5.57
2023-02-22T07:26:01.164Z,5.55
2023-02-22T07:28:29.236Z,5.59
2023-02-22T07:30:57.208Z,5.65
2023-02-22T07:33:25.754Z,5.69
2023-02-22T07:35:55.178Z,5.70
2023-02-22T07:38:23.211Z,5.77
2023-02-22T07:40:51.125Z,5.84
2023-02-22T07:43:21.631Z,5.94
2023-02-22T07:45:52.385Z,6.08
2023-02-22T07:48:22.135Z,6.18
2023-02-22T07:50:50.270Z,6.26
2023-02-22T07:53:21.891Z,6.41
2023-02-22T07:55:51.275Z,6.54
2023-02-22T07:58:21.286Z,6.65
2023-02-22T08:00:49.331Z,6.75
2023-02-22T08:03:19.972Z,6.84
2023-02-22T08:05:50.109Z,6.87
2023-02-22T08:08:20.063Z,7.02
2023-02-22T08:10:49.232Z,7.22
2023-02-22T08:13:17.563Z,7.47
2023-02-22T08:15:47.295Z,7.64
2023-02-22T08:18:17.337Z,7.79
2023-02-22T08:20:47.667Z,7.91
2023-02-22T08:23:17.603Z,7.99
2023-02-22T08:25:47.103Z,8.09
2023-02-22T08:28:17.686Z,8.20
2023-02-22T08:30:45.791Z,8.28
2023-02-22T08:33:16.924Z,8.33
2023-02-22T08:35:45.121Z,8.38
2023-02-22T08:38:20.220Z,8.46
2023-02-22T08:40:50.448Z,8.53
2023-02-22T08:43:19.564Z,8.58
2023-02-22T08:48:51.494Z,8.64
2023-02-22T08:51:19.680Z,8.66
2023-02-22T08:53:47.631Z,8.68
2023-02-22T08:56:16.988Z,8.77
2023-02-22T08:58:45.222Z,8.82
2023-02-22T09:01:19.255Z,8.84
2023-02-22T09:03:50.090Z,8.89
2023-02-22T09:06:18.485Z,9.01
2023-02-22T09:08:46.583Z,9.17
2023-02-22T09:11:16.522Z,9.30
2023-02-22T09:13:44.752Z,9.32
2023-02-22T09:16:13.016Z,9.48
2023-02-22T09:18:44.389Z,9.51
2023-02-22T09:21:13.364Z,9.68
2023-02-22T09:23:41.580Z,9.79
2023-02-22T09:26:10.462Z,9.88
2023-02-22T09:28:39.929Z,9.96
2023-02-22T09:31:08.837Z,10.05
2023-02-22T09:33:36.909Z,10.12
2023-02-22T09:36:06.974Z,10.25
2023-02-22T09:38:35.036Z,10.39
2023-02-22T09:41:15.606Z,10.54
2023-02-22T09:43:50.538Z,10.43
2023-02-22T09:46:29.752Z,10.37
2023-02-22T09:49:03.584Z,10.41
2023-02-22T09:51:38.525Z,10.52
2023-02-22T09:54:17.677Z,10.64
2023-02-22T09:56:49.322Z,10.62
2023-02-22T09:59:24.412Z,10.71
2023-02-22T10:01:59.163Z,10.76
2023-02-22T10:04:41.447Z,10.81
2023-02-22T10:07:18.364Z,10.81
2023-02-22T10:09:48.693Z,10.90
2023-02-22T10:12:25.204Z,11.06
2023-02-22T10:15:27.577Z,11.18
2023-02-22T10:18:05.149Z,11.20
2023-02-22T10:20:45.952Z,11.32
2023-02-22T10:23:22.787Z,11.47
2023-02-22T10:25:55.835Z,11.64
2023-02-22T10:28:31.058Z,11.81
2023-02-22T10:31:05.313Z,11.96
2023-02-22T10:33:38.049Z,12.08
2023-02-22T10:36:07.762Z,12.13
2023-02-22T10:38:36.476Z,12.30
2023-02-22T10:41:20.274Z,12.41
2023-02-22T10:43:48.315Z,12.45
2023-02-22T10:46:22.655Z,12.55
2023-02-22T10:48:54.581Z,12.50
2023-02-22T10:51:22.700Z,12.44
2023-02-22T10:54:00.119Z,12.53
2023-02-22T10:56:29.421Z,12.61
2023-02-22T10:58:59.743Z,12.64
2023-02-22T11:01:37.214Z,12.80
2023-02-22T11:04:12.905Z,13.08
2023-02-22T11:06:42.742Z,13.28
2023-02-22T11:09:14.457Z,13.32
2023-02-22T11:11:45.980Z,13.27
2023-02-22T11:14:26.044Z,13.22
2023-02-22T11:17:07.885Z,13.35
2023-02-22T11:19:38.476Z,13.37
2023-02-22T11:22:14.814Z,13.47
2023-02-22T11:24:50.748Z,13.54
2023-02-22T11:27:31.722Z,13.69
2023-02-22T11:30:21.867Z,13.59
2023-02-22T11:32:55.948Z,13.56
2023-02-22T11:35:40.803Z,13.41
2023-02-22T11:38:17.453Z,13.38
2023-02-22T11:40:46.582Z,13.36
2023-02-22T11:43:17.760Z,13.31
2023-02-22T11:46:03.067Z,13.25
2023-02-22T11:48:40.550Z,13.11
2023-02-22T11:51:27.669Z,13.12
2023-02-22T11:54:25.492Z,13.09
2023-02-22T11:57:06.319Z,13.14
2023-02-22T11:59:44.492Z,13.23
2023-02-22T12:02:57.282Z,13.32
2023-02-22T12:05:40.731Z,13.45
2023-02-22T12:08:21.138Z,13.49
2023-02-22T12:11:03.559Z,13.41
2023-02-22T12:13:46.788Z,13.42
2023-02-22T12:16:22.841Z,13.36
2023-02-22T12:19:08.436Z,13.30
2023-02-22T12:21:41.925Z,13.33
2023-02-22T12:24:16.547Z,13.23
2023-02-22T12:26:49.209Z,13.18
2023-02-22T12:29:26.283Z,13.19
2023-02-22T12:32:01.170Z,13.17
2023-02-22T12:34:36.077Z,13.27
2023-02-22T12:37:16.244Z,13.12
2023-02-22T12:39:54.395Z,13.22
2023-02-22T12:42:31.651Z,13.10
2023-02-22T12:45:08.315Z,13.14
2023-02-22T12:47:43.831Z,13.19
2023-02-22T12:50:21.130Z,13.25
2023-02-22T12:52:57.775Z,13.14
2023-02-22T12:55:27.809Z,13.21
2023-02-22T12:58:02.960Z,13.20
2023-02-22T13:00:38.779Z,13.16
2023-02-22T13:03:30.300Z,13.16
2023-02-22T13:06:24.824Z,13.28
2023-02-22T13:09:05.562Z,13.32
2023-02-22T13:11:43.320Z,13.35
2023-02-22T13:14:31.798Z,13.33
2023-02-22T13:17:06.778Z,13.35
2023-02-22T13:19:45.005Z,13.40
2023-02-22T13:22:21.206Z,13.40
2023-02-22T13:25:02.813Z,13.52
2023-02-22T13:27:39.155Z,13.56
2023-02-22T13:30:16.559Z,13.75
2023-02-22T13:33:05.556Z,13.75
2023-02-22T13:35:48.922Z,13.82
2023-02-22T13:39:01.578Z,14.03
2023-02-22T13:41:59.545Z,14.14
2023-02-22T13:44:59.863Z,14.16
2023-02-22T13:47:57.806Z,14.06
2023-02-22T13:50:40.770Z,14.05
2023-02-22T13:53:15.015Z,13.94
2023-02-22T13:55:51.775Z,13.99
2023-02-22T13:58:22.270Z,14.03
2023-02-22T14:00:53.484Z,14.09
2023-02-22T14:03:41.904Z,14.27
2023-02-22T14:06:12.286Z,14.43
2023-02-22T14:08:42.142Z,14.56
2023-02-22T14:11:45.561Z,14.60
2023-02-22T14:14:19.209Z,14.63
2023-02-22T14:17:28.088Z,14.67
2023-02-22T14:20:31.126Z,14.83
2023-02-22T14:23:27.624Z,14.78
2023-02-22T14:25:56.199Z,14.73
2023-02-22T14:28:42.399Z,14.74
2023-02-22T14:31:29.493Z,14.60
2023-02-22T14:34:11.305Z,14.51
2023-02-22T14:36:55.118Z,14.46
2023-02-22T14:39:32.199Z,14.40
2023-02-22T14:42:06.499Z,14.37
2023-02-22T14:44:38.146Z,14.32
2023-02-22T14:47:15.213Z,14.42
2023-02-22T14:49:48.176Z,14.39
2023-02-22T14:52:24.338Z,14.34
2023-02-22T14:55:17.605Z,14.18
2023-02-22T14:57:59.726Z,14.16
2023-02-22T15:00:32.502Z,14.19
2023-02-22T15:03:02.289Z,14.18
2023-02-22T15:05:38.529Z,14.11
2023-02-22T15:08:09.690Z,14.06
2023-02-22T15:10:43.966Z,14.06
2023-02-22T15:13:18.881Z,14.01
2023-02-22T15:15:49.432Z,14.01
2023-02-22T15:18:29.555Z,13.94
2023-02-22T15:20:59.650Z,13.98
2023-02-22T15:23:33.417Z,13.89
2023-02-22T15:26:01.739Z,13.81
2023-02-22T15:28:32.232Z,13.74
2023-02-22T15:31:17.559Z,13.62
2023-02-22T15:33:47.354Z,13.61
2023-02-22T15:36:17.949Z,13.48
2023-02-22T15:38:51.290Z,13.46
2023-02-22T15:41:28.063Z,13.34
2023-02-22T15:44:17.697Z,13.30
2023-02-22T15:46:50.811Z,13.17
2023-02-22T15:49:24.394Z,13.13
2023-02-22T15:52:05.444Z,13.02
2023-02-22T15:54:42.229Z,12.98
2023-02-22T15:57:10.706Z,12.86
2023-02-22T15:59:44.997Z,12.90
2023-02-22T16:02:32.615Z,12.80
2023-02-22T16:05:06.914Z,12.75
2023-02-22T16:07:39.904Z,12.71
2023-02-22T16:10:10.437Z,12.65
2023-02-22T16:12:38.497Z,12.59
2023-02-22T16:15:18.115Z,12.60
2023-02-22T16:18:00.907Z,12.54
2023-02-22T16:20:34.468Z,12.48
2023-02-22T16:23:23.451Z,12.41
2023-02-22T16:26:04.181Z,12.33
2023-02-22T16:28:35.599Z,12.28
2023-02-22T16:31:04.366Z,12.19
2023-02-22T16:33:33.985Z,12.17
2023-02-22T16:36:09.221Z,12.11
2023-02-22T16:38:39.345Z,12.03
2023-02-22T16:41:08.439Z,11.98
2023-02-22T16:43:38.398Z,11.93
2023-02-22T16:46:07.524Z,11.88
2023-02-22T16:48:38.393Z,11.82
2023-02-22T16:51:21.389Z,11.74
2023-02-22T16:53:50.972Z,11.68
2023-02-22T16:56:22.225Z,11.63
2023-02-22T16:58:53.518Z,11.57
2023-02-22T17:01:23.447Z,11.53
2023-02-22T17:03:54.339Z,11.47
2023-02-22T17:06:25.287Z,11.44
2023-02-22T17:08:53.654Z,11.45
2023-02-22T17:11:22.318Z,11.47
2023-02-22T17:13:53.738Z,11.46
2023-02-22T17:16:22.302Z,11.44
2023-02-22T17:18:51.480Z,11.39
2023-02-22T17:21:19.506Z,11.35
2023-02-22T17:23:49.030Z,11.34
2023-02-22T17:26:21.158Z,11.29
2023-02-22T17:28:50.166Z,11.20
2023-02-22T17:31:23.819Z,11.13
2023-02-22T17:33:53.124Z,11.08
2023-02-22T17:36:25.218Z,11.04
2023-02-22T17:38:55.735Z,10.96
2023-02-22T17:41:27.709Z,10.89
2023-02-22T17:43:58.415Z,10.82
2023-02-22T17:46:30.771Z,10.79
2023-02-22T17:49:11.273Z,10.76
2023-02-22T17:51:42.630Z,10.71
2023-02-22T17:54:12.208Z,10.68
2023-02-22T17:56:41.442Z,10.67
2023-02-22T17:59:12.363Z,10.64
2023-02-22T18:01:40.470Z,10.65
2023-02-22T18:04:08.478Z,10.60
2023-02-22T18:06:38.260Z,10.60
2023-02-22T18:09:10.612Z,10.57
2023-02-22T18:11:42.484Z,10.56
2023-02-22T18:14:12.388Z,10.56
2023-02-22T18:16:41.581Z,10.54
2023-02-22T18:19:09.552Z,10.52
2023-02-22T18:21:38.717Z,10.51
2023-02-22T18:24:07.659Z,10.49
2023-02-22T18:26:35.757Z,10.47
2023-02-22T18:29:05.257Z,10.44
2023-02-22T18:31:33.280Z,10.43
2023-02-22T18:34:01.324Z,10.41
2023-02-22T18:36:29.438Z,10.38
2023-02-22T18:38:58.053Z,10.38
2023-02-22T18:41:26.484Z,10.39
2023-02-22T18:43:57.712Z,10.37
2023-02-22T18:46:27.857Z,10.36
2023-02-22T18:48:56.746Z,10.37
2023-02-22T18:51:26.092Z,10.37
2023-02-22T18:54:00.045Z,10.35
2023-02-22T18:56:30.885Z,10.33
2023-02-22T18:59:00.864Z,10.32
2023-02-22T19:01:33.779Z,10.28
2023-02-22T19:04:01.795Z,10.25
2023-02-22T19:06:29.842Z,10.21
2023-02-22T19:09:01.606Z,10.18
2023-02-22T19:11:29.680Z,10.15
2023-02-22T19:13:59.670Z,10.11
2023-02-22T19:16:28.463Z,10.09
2023-02-22T19:18:58.716Z,10.08
2023-02-22T19:21:30.114Z,10.06
2023-02-22T19:23:58.356Z,10.03
2023-02-22T19:26:29.094Z,10.02
2023-02-22T19:28:58.615Z,9.99
2023-02-22T19:31:31.142Z,9.96
2023-02-22T19:34:03.763Z,9.97
2023-02-22T19:36:31.940Z,10.00
2023-02-22T19:39:05.020Z,9.98
2023-02-22T19:41:33.081Z,10.01
2023-02-22T19:44:02.866Z,10.04
2023-02-22T19:46:32.016Z,10.04
2023-02-22T19:49:02.687Z,10.09
2023-02-22T19:51:31.883Z,10.13
2023-02-22T19:54:02.558Z,10.17
2023-02-22T19:56:32.360Z,10.20
2023-02-22T19:59:06.289Z,10.29
2023-02-22T20:01:38.199Z,10.26
2023-02-22T20:04:10.365Z,10.27
2023-02-22T20:06:44.016Z,10.23
2023-02-22T20:09:15.296Z,10.22
2023-02-22T20:11:43.337Z,10.17
2023-02-22T20:14:18.747Z,10.14
2023-02-22T20:16:47.320Z,10.11
2023-02-22T20:19:18.258Z,10.07
2023-02-22T20:21:46.385Z,10.01
2023-02-22T20:24:20.452Z,9.98
2023-02-22T20:26:50.219Z,9.97
2023-02-22T20:29:19.136Z,9.94
2023-02-22T20:31:53.722Z,9.94
2023-02-22T20:34:25.915Z,9.91
2023-02-22T20:36:54.459Z,9.90
2023-02-22T20:39:22.813Z,9.90
2023-02-22T20:41:55.332Z,9.89
2023-02-22T20:44:23.447Z,9.89
2023-02-22T20:46:51.848Z,9.89
2023-02-22T20:49:23.640Z,9.87
2023-02-22T20:51:54.630Z,9.80
2023-02-22T20:54:23.228Z,9.81
2023-02-22T20:56:53.250Z,9.81
2023-02-22T20:59:21.905Z,9.80
2023-02-22T21:01:50.515Z,9.79
2023-02-22T21:04:19.354Z,9.76
2023-02-22T21:06:49.467Z,9.73
2023-02-22T21:09:20.282Z,9.70
2023-02-22T21:11:49.141Z,9.69
2023-02-22T21:14:19.986Z,9.65
2023-02-22T21:16:49.687Z,9.60
2023-02-22T21:19:25.627Z,9.54
2023-02-22T21:21:57.262Z,9.46
2023-02-22T21:24:27.378Z,9.40
2023-02-22T21:26:55.809Z,9.33
2023-02-22T21:29:23.840Z,9.32
2023-02-22T21:31:54.273Z,9.26
2023-02-22T21:34:22.576Z,9.28
2023-02-22T21:36:52.518Z,9.19
2023-02-22T21:39:22.795Z,9.17
2023-02-22T21:41:52.714Z,9.09
2023-02-22T21:44:22.149Z,9.08
2023-02-22T21:46:50.284Z,9.05
2023-02-22T21:49:22.374Z,9.04
2023-02-22T21:51:51.698Z,9.03
2023-02-22T21:54:21.756Z,9.01
2023-02-22T21:56:50.883Z,8.99
2023-02-22T21:59:20.744Z,8.98
2023-02-22T22:01:50.430Z,8.97
2023-02-22T22:04:20.697Z,8.96
2023-02-22T22:06:50.128Z,8.94
2023-02-22T22:09:23.637Z,8.93
2023-02-22T22:12:01.503Z,8.92
2023-02-22T22:14:29.554Z,8.87
2023-02-22T22:16:58.875Z,8.80
2023-02-22T22:19:27.304Z,8.81
2023-02-22T22:21:55.510Z,8.80
2023-02-22T22:24:24.916Z,8.80
2023-02-22T22:26:55.489Z,8.77
2023-02-22T22:29:26.662Z,8.79
2023-02-22T22:31:54.977Z,8.76
2023-02-22T22:34:24.465Z,8.74
2023-02-22T22:36:52.779Z,8.72
2023-02-22T22:39:21.211Z,8.69
2023-02-22T22:41:49.609Z,8.65
2023-02-22T22:44:22.431Z,8.61
2023-02-22T22:46:53.835Z,8.58
2023-02-22T22:49:23.720Z,8.56
2023-02-22T22:51:53.749Z,8.58
2023-02-22T22:54:23.024Z,8.65
2023-02-22T22:56:51.422Z,8.63
2023-02-22T22:59:21.745Z,8.68
2023-02-22T23:01:52.132Z,8.64
2023-02-22T23:04:21.535Z,8.63
2023-02-22T23:06:52.301Z,8.61
2023-02-22T23:09:23.306Z,8.56
2023-02-22T23:11:53.483Z,8.56
2023-02-22T23:14:25.078Z,8.52
2023-02-22T23:16:56.634Z,8.54
2023-02-22T23:19:24.677Z,8.55
2023-02-22T23:21:53.087Z,8.55
2023-02-22T23:24:21.706Z,8.67
2023-02-22T23:26:50.849Z,8.61
2023-02-22T23:29:20.288Z,8.66
2023-02-22T23:31:50.858Z,8.67
2023-02-22T23:34:21.493Z,8.67
2023-02-22T23:36:54.256Z,8.58
2023-02-22T23:39:23.880Z,8.52
2023-02-22T23:41:53.009Z,8.46
2023-02-22T23:44:21.836Z,8.39
2023-02-22T23:46:55.931Z,8.33
2023-02-22T23:49:26.914Z,8.32
2023-02-22T23:51:55.712Z,8.31
2023-02-22T23:54:24.839Z,8.31
2023-02-22T23:56:56.999Z,8.32
2023-02-22T23:59:26.319Z,8.30
